Time;durP1;ratioP1;P1;durP2;ratioP2;P2;SDS_P1;SDS_P2;PMS_P1;PMS_P2;Temp;Humidity;BMP_temperature;BMP_pressure;BME280_temperature;BME280_humidity;BME280_pressure;Samples;Min_cycle;Max_cycle;Signal;HPM_P1;HPM_P2
2022/03/19 00:00:24;;;;;;;49.45;22.75;;;;;;;-1.49;54.63;103427.73;1674883;85;25964;-77
2022/03/19 00:02:53;;;;;;;57.17;22.27;;;;;;;-1.51;55.01;103426.05;1674433;85;26793;-77
2022/03/19 00:05:19;;;;;;;62.90;24.35;;;;;;;-1.55;54.82;103426.59;1674887;84;25812;-77
2022/03/19 00:07:46;;;;;;;56.20;22.52;;;;;;;-1.61;54.66;103418.88;1675043;84;25827;-76
2022/03/19 00:10:13;;;;;;;57.62;23.35;;;;;;;-1.69;54.61;103423.47;1676330;84;25869;-76
2022/03/19 00:12:39;;;;;;;46.70;21.62;;;;;;;-1.76;54.62;103417.95;1692242;84;26539;-76
2022/03/19 00:15:08;;;;;;;41.48;20.75;;;;;;;-1.80;54.65;103415.87;1688175;84;27638;-77
2022/03/19 00:17:34;;;;;;;42.80;19.23;;;;;;;-1.83;54.60;103418.56;1679847;84;25844;-76
2022/03/19 00:20:00;;;;;;;44.03;19.80;;;;;;;-1.84;54.51;103422.07;1689169;84;25733;-76
2022/03/19 00:22:27;;;;;;;43.70;20.48;;;;;;;-1.91;54.63;103421.84;1686266;84;26609;-76
2022/03/19 00:24:53;;;;;;;41.88;18.40;;;;;;;-1.91;54.63;103421.84;1686772;84;25827;-77
2022/03/19 00:27:19;;;;;;;45.60;19.45;;;;;;;-1.88;54.96;103421.74;1690956;84;27439;-76
2022/03/19 00:29:46;;;;;;;47.60;22.15;;;;;;;-1.89;54.90;103425.73;1686957;84;25786;-76
2022/03/19 00:32:12;;;;;;;53.70;23.73;;;;;;;-1.90;54.92;103420.92;1689786;84;25931;-76
2022/03/19 00:34:38;;;;;;;65.22;28.50;;;;;;;-1.88;55.13;103420.91;1691960;84;25756;-77
2022/03/19 00:37:05;;;;;;;68.02;26.35;;;;;;;-1.94;55.16;103412.70;1688290;84;25933;-76
2022/03/19 00:39:31;;;;;;;56.63;25.40;;;;;;;-1.95;55.30;103414.94;1686842;84;27514;-76
2022/03/19 00:41:57;;;;;;;62.98;27.20;;;;;;;-2.01;55.36;103408.50;1691098;84;25888;-77
2022/03/19 00:44:23;;;;;;;61.35;27.52;;;;;;;-2.09;55.45;103406.52;1687346;84;25305;-77
2022/03/19 00:46:50;;;;;;;59.13;24.67;;;;;;;-2.13;55.52;103411.88;1688956;84;25810;-77
2022/03/19 00:49:18;;;;;;;64.03;27.32;;;;;;;-2.19;55.78;103410.28;1689610;84;25865;-76
2022/03/19 00:51:44;;;;;;;56.30;24.72;;;;;;;-2.20;56.11;103409.02;1688770;84;28045;-77
2022/03/19 00:54:12;;;;;;;61.45;25.57;;;;;;;-2.23;56.28;103411.25;1681888;84;25795;-76
2022/03/19 00:56:39;;;;;;;57.90;25.15;;;;;;;-2.28;56.38;103403.92;1680421;84;25737;-76
2022/03/19 00:59:05;;;;;;;55.92;24.98;;;;;;;-2.27;56.79;103405.67;1687444;84;25842;-77
2022/03/19 01:01:31;;;;;;;53.38;23.25;;;;;;;-2.32;56.68;103400.97;1691449;84;25863;-76
2022/03/19 01:03:58;;;;;;;53.05;23.47;;;;;;;-2.34;56.76;103405.39;1690940;84;27599;-76
2022/03/19 01:06:24;;;;;;;51.13;23.95;;;;;;;-2.39;56.80;103400.25;1689520;84;26584;-77
2022/03/19 01:08:50;;;;;;;49.58;22.52;;;;;;;-2.42;56.98;103398.99;1691280;84;25889;-78
2022/03/19 01:11:17;;;;;;;47.10;23.18;;;;;;;-2.45;56.98;103396.45;1687897;84;25818;-77
2022/03/19 01:13:43;;;;;;;50.85;24.45;;;;;;;-2.51;56.94;103393.11;1688153;84;25773;-77
2022/03/19 01:16:09;;;;;;;52.83;24.40;;;;;;;-2.51;56.94;103393.11;1690025;84;28697;-77
2022/03/19 01:18:35;;;;;;;48.35;22.10;;;;;;;-2.45;57.18;103408.70;1687862;84;25916;-77
2022/03/19 01:21:01;;;;;;;43.78;19.65;;;;;;;-2.46;57.36;103413.56;1690750;84;25743;-77
2022/03/19 01:23:28;;;;;;;44.88;21.12;;;;;;;-2.49;57.59;103413.18;1689299;84;26628;-77
2022/03/19 01:25:55;;;;;;;43.92;20.17;;;;;;;-2.57;58.13;103413.81;1692446;84;26292;-77
2022/03/19 01:28:21;;;;;;;39.23;20.88;;;;;;;-2.57;58.13;103413.81;1689999;84;27439;-77
2022/03/19 01:30:47;;;;;;;43.23;20.20;;;;;;;-2.66;58.29;103405.27;1681734;84;25862;-77
2022/03/19 01:33:13;;;;;;;41.98;19.52;;;;;;;-2.71;58.67;103405.36;1678470;84;25790;-77
2022/03/19 01:35:39;;;;;;;45.00;19.92;;;;;;;-2.71;58.67;103405.36;1689439;84;26509;-77
2022/03/19 01:38:06;;;;;;;45.83;20.48;;;;;;;-2.72;58.77;103408.90;1687658;84;25746;-77
2022/03/19 01:40:32;;;;;;;45.33;20.20;;;;;;;-2.73;58.97;103407.59;1691983;84;27611;-77
2022/03/19 01:43:00;;;;;;;47.50;20.65;;;;;;;-2.79;58.54;103409.92;1687889;84;26568;-77
2022/03/19 01:45:26;;;;;;;46.40;21.10;;;;;;;-2.79;58.54;103409.92;1687374;84;25957;-77
2022/03/19 01:47:54;;;;;;;41.15;19.77;;;;;;;-2.86;58.77;103407.45;1690692;84;25828;-77
2022/03/19 01:50:22;;;;;;;42.03;18.90;;;;;;;-2.94;58.81;103405.00;1689174;84;26035;-77
2022/03/19 01:52:49;;;;;;;40.28;19.42;;;;;;;-2.96;58.99;103402.86;1692081;84;26901;-77
2022/03/19 01:55:21;;;;;;;41.55;20.82;;;;;;;-2.97;59.14;103398.97;1687651;84;25859;-77
2022/03/19 01:57:49;;;;;;;42.17;19.32;;;;;;;-2.92;59.39;103403.20;1691216;84;25358;-77
2022/03/19 02:00:21;;;;;;;47.10;20.40;;;;;;;-2.92;59.54;103404.52;1688208;84;25851;-78
2022/03/19 02:02:49;;;;;;;37.55;19.67;;;;;;;-3.00;59.66;103406.45;1681620;84;25868;-77
2022/03/19 02:05:22;;;;;;;37.65;18.57;;;;;;;-3.07;60.03;103403.52;1687270;84;27452;-77
2022/03/19 02:07:50;;;;;;;39.83;19.40;;;;;;;-3.12;60.11;103401.00;1691409;84;25896;-77
2022/03/19 02:10:19;;;;;;;37.03;19.40;;;;;;;-3.10;60.39;103400.12;1689757;84;26422;-77
2022/03/19 02:12:47;;;;;;;48.40;20.97;;;;;;;-3.13;60.53;103406.28;1680788;84;26984;-77
2022/03/19 02:15:14;;;;;;;54.53;21.85;;;;;;;-3.20;60.38;103409.47;1673118;84;25768;-77
2022/03/19 02:17:41;;;;;;;48.45;21.97;;;;;;;-3.27;60.47;103411.78;1676612;84;27669;-77
2022/03/19 02:20:09;;;;;;;44.18;21.52;;;;;;;-3.34;60.74;103406.27;1676144;85;26579;-77
2022/03/19 02:22:35;;;;;;;47.40;22.10;;;;;;;-3.36;60.99;103401.48;1675720;85;26692;-77
2022/03/19 02:27:48;;;;;;;41.58;19.32;;;;;;;-3.41;61.02;103411.64;1678113;84;26576;-77
2022/03/19 02:30:16;;;;;;;42.88;19.55;;;;;;;-3.47;61.02;103403.47;1676092;85;27619;-77
2022/03/19 02:32:47;;;;;;;47.88;21.93;;;;;;;-3.48;61.07;103410.02;1687369;84;26499;-77
2022/03/19 02:35:13;;;;;;;39.30;19.05;;;;;;;-3.50;61.15;103411.37;1676957;85;32456;-77
2022/03/19 02:37:46;;;;;;;42.38;20.57;;;;;;;-3.51;61.27;103412.28;1676588;84;26525;-77
2022/03/19 02:40:17;;;;;;;37.98;19.52;;;;;;;-3.54;61.20;103412.76;1676053;85;25906;-77
2022/03/19 02:42:46;;;;;;;41.53;20.25;;;;;;;-3.57;61.13;103418.08;1675874;85;28115;-77
2022/03/19 02:45:13;;;;;;;36.95;17.75;;;;;;;-3.58;61.25;103420.27;1676027;85;25791;-78
2022/03/19 02:47:57;;;;;;;39.15;18.02;;;;;;;-3.59;61.29;103423.79;1666703;85;25892;-77
2022/03/19 02:50:08;;;;;;;36.38;19.20;;;;;;;-3.61;61.30;103422.48;1672224;85;26678;-77
2022/03/19 02:52:34;;;;;;;37.33;18.12;;;;;;;-3.61;61.16;103418.99;1676005;84;26524;-77
2022/03/19 02:55:00;;;;;;;37.83;19.77;;;;;;;-3.60;61.19;103422.05;1675696;85;27448;-77
2022/03/19 02:57:27;;;;;;;36.23;18.95;;;;;;;-3.58;61.10;103422.88;1675900;85;25771;-77
2022/03/19 02:59:54;;;;;;;36.95;18.98;;;;;;;-3.62;61.03;103419.47;1675737;85;26559;-76
2022/03/19 03:02:20;;;;;;;39.78;19.10;;;;;;;-3.62;61.00;103422.09;1675582;85;25843;-77
2022/03/19 03:04:46;;;;;;;43.45;20.45;;;;;;;-3.63;61.02;103422.09;1676146;85;25940;-77
2022/03/19 03:07:13;;;;;;;42.45;22.30;;;;;;;-3.66;61.08;103424.34;1676363;84;27443;-77
2022/03/19 03:09:39;;;;;;;40.28;21.70;;;;;;;-3.63;61.10;103422.09;1677181;84;25739;-77
2022/03/19 03:12:06;;;;;;;45.63;22.58;;;;;;;-3.65;61.14;103422.13;1683430;84;25825;-77
2022/03/19 03:14:32;;;;;;;36.98;19.75;;;;;;;-3.62;61.37;103428.63;1664951;85;26614;-77
2022/03/19 03:17:01;;;;;;;39.30;19.65;;;;;;;-3.61;61.75;103426.41;1675805;85;25731;-77
2022/03/19 03:19:27;;;;;;;34.78;16.87;;;;;;;-3.65;61.90;103422.13;1676181;85;27385;-77
2022/03/19 03:21:53;;;;;;;33.90;16.97;;;;;;;-3.67;62.07;103425.22;1675503;85;26480;-77
2022/03/19 03:24:19;;;;;;;33.80;16.07;;;;;;;-3.75;62.17;103426.25;1676341;85;26491;-77
2022/03/19 03:26:46;;;;;;;35.95;19.23;;;;;;;-3.82;62.36;103427.23;1676588;84;26632;-77
2022/03/19 03:29:14;;;;;;;35.80;18.12;;;;;;;-3.87;62.32;103431.70;1676154;85;25716;-77
2022/03/19 03:31:40;;;;;;;32.40;17.40;;;;;;;-3.91;62.59;103440.91;1675504;85;27462;-77
2022/03/19 03:34:06;;;;;;;33.73;17.17;;;;;;;-3.95;62.66;103434.00;1675505;85;25918;-78
2022/03/19 03:36:34;;;;;;;35.10;17.73;;;;;;;-3.98;62.87;103431.42;1662867;85;26526;-77
2022/03/19 03:39:00;;;;;;;35.23;17.17;;;;;;;-4.03;62.93;103429.34;1676277;85;26575;-77
2022/03/19 03:41:26;;;;;;;42.17;20.72;;;;;;;-4.07;62.89;103425.05;1675725;85;25834;-77
2022/03/19 03:43:53;;;;;;;48.60;22.27;;;;;;;-4.06;62.84;103435.05;1675523;84;27487;-77
2022/03/19 03:46:19;;;;;;;47.05;21.60;;;;;;;-4.07;62.68;103434.64;1675873;85;25986;-77
2022/03/19 03:48:46;;;;;;;54.25;25.27;;;;;;;-4.09;62.59;103432.50;1676359;85;25731;-77
2022/03/19 03:51:13;;;;;;;49.03;24.07;;;;;;;-4.07;62.68;103434.64;1676199;84;26504;-77
2022/03/19 03:53:40;;;;;;;52.20;25.32;;;;;;;-4.03;62.68;103428.47;1676222;84;26576;-77
2022/03/19 03:56:09;;;;;;;54.20;26.35;;;;;;;-4.01;62.67;103431.92;1671395;85;27624;-78
2022/03/19 03:58:36;;;;;;;54.50;24.47;;;;;;;-3.98;62.85;103428.80;1665526;85;25361;-77
2022/03/19 04:01:02;;;;;;;48.85;23.38;;;;;;;-3.95;62.87;103426.58;1675911;85;25807;-77
2022/03/19 04:03:28;;;;;;;43.58;22.32;;;;;;;-3.95;62.99;103430.07;1675451;84;25791;-77
2022/03/19 04:05:55;;;;;;;45.83;22.30;;;;;;;-3.96;63.02;103429.64;1675698;85;26045;-77
2022/03/19 04:08:21;;;;;;;44.40;23.32;;;;;;;-3.97;63.05;103428.36;1676342;85;27472;-78
2022/03/19 04:10:47;;;;;;;47.88;23.85;;;;;;;-3.98;62.95;103424.03;1676075;84;26146;-77
2022/03/19 04:13:14;;;;;;;45.05;22.48;;;;;;;-4.02;62.72;103429.74;1675411;84;26101;-77
2022/03/19 04:15:40;;;;;;;51.88;24.18;;;;;;;-4.02;62.80;103428.91;1676253;84;27115;-77
2022/03/19 04:18:06;;;;;;;60.98;27.35;;;;;;;-4.04;62.80;103424.98;1675637;85;25874;-77
2022/03/19 04:20:33;;;;;;;54.67;26.97;;;;;;;-4.04;62.98;103437.20;1675816;85;27637;-77
2022/03/19 04:22:59;;;;;;;51.23;26.23;;;;;;;-4.07;63.14;103433.34;1675369;85;25929;-77
2022/03/19 04:25:26;;;;;;;44.67;22.82;;;;;;;-4.13;63.11;103437.37;1675827;84;25906;-77
2022/03/19 04:27:56;;;;;;;44.50;22.25;;;;;;;-4.19;63.28;103437.00;1675554;85;26562;-76
2022/03/19 04:30:25;;;;;;;47.38;22.15;;;;;;;-4.18;63.64;103435.25;1676001;85;25780;-77
2022/03/19 04:33:00;;;;;;;46.37;23.20;;;;;;;-4.17;63.75;103440.45;1675768;85;28292;-77
2022/03/19 04:38:18;;;;;;;45.10;21.05;;;;;;;-4.26;63.76;103441.05;1675898;85;25849;-77
2022/03/19 04:40:47;;;;;;;47.80;22.75;;;;;;;-4.33;63.76;103445.52;1676366;84;26518;-76
2022/03/19 04:43:13;;;;;;;51.18;24.60;;;;;;;-4.36;63.79;103445.55;1675327;85;25992;-77
2022/03/19 04:45:41;;;;;;;46.28;23.62;;;;;;;-4.34;63.91;103442.47;1676313;84;27426;-76
2022/03/19 04:48:08;;;;;;;57.58;25.95;;;;;;;-4.34;63.77;103443.77;1674484;85;26185;-77
2022/03/19 04:50:40;;;;;;;52.17;26.37;;;;;;;-4.37;63.79;103439.91;1676723;84;25848;-78
2022/03/19 04:53:08;;;;;;;65.32;30.82;;;;;;;-4.38;63.74;103442.09;1668646;84;25875;-77
2022/03/19 04:55:36;;;;;;;75.12;35.58;;;;;;;-4.39;63.75;103439.51;1669530;85;26396;-77
2022/03/19 04:58:07;;;;;;;78.87;39.58;;;;;;;-4.37;63.97;103444.27;1668053;85;28258;-77
2022/03/19 05:00:36;;;;;;;79.47;40.20;;;;;;;-4.35;64.04;103439.87;1671258;85;25976;-77
2022/03/19 05:03:02;;;;;;;75.72;37.88;;;;;;;-4.32;64.09;103452.46;1671414;85;25823;-77
2022/03/19 05:05:29;;;;;;;71.30;33.98;;;;;;;-4.29;64.17;103450.25;1671488;85;25805;-77
2022/03/19 05:07:55;;;;;;;80.17;36.73;;;;;;;-4.26;64.66;103447.16;1675416;85;26442;-77
2022/03/19 05:13:09;;;;;;;53.35;26.77;;;;;;;-4.26;64.79;103455.45;1669172;84;26026;-76
2022/03/19 05:15:35;;;;;;;60.20;25.82;;;;;;;-4.35;64.87;103464.73;1670786;85;25815;-77
2022/03/19 05:18:02;;;;;;;56.80;25.72;;;;;;;-4.43;64.94;103460.94;1675286;85;26549;-77
2022/03/19 05:20:28;;;;;;;46.42;23.22;;;;;;;-4.47;65.34;103467.53;1674193;85;25823;-77
2022/03/19 05:22:55;;;;;;;49.33;26.10;;;;;;;-4.52;65.70;103467.59;1673668;85;27626;-77
2022/03/19 05:25:21;;;;;;;58.63;28.57;;;;;;;-4.53;66.04;103471.55;1675794;84;25825;-77
2022/03/19 05:27:48;;;;;;;76.75;33.20;;;;;;;-4.54;66.14;103465.45;1667315;85;26646;-76
2022/03/19 05:30:15;;;;;;;82.45;38.15;;;;;;;-4.51;66.21;103471.08;1671520;85;26543;-77
2022/03/19 05:32:42;;;;;;;83.75;39.00;;;;;;;-4.49;66.19;103472.77;1675602;85;25805;-77
2022/03/19 05:35:09;;;;;;;82.35;37.73;;;;;;;-4.48;66.39;103475.82;1675292;85;28273;-76
2022/03/19 05:37:35;;;;;;;73.50;36.00;;;;;;;-4.47;66.44;103481.92;1675874;85;25969;-76
2022/03/19 05:40:07;;;;;;;79.40;36.65;;;;;;;-4.43;66.46;103484.48;1667458;85;25823;-76
2022/03/19 05:42:33;;;;;;;76.20;35.83;;;;;;;-4.35;66.67;103484.36;1671788;85;25890;-77
2022/03/19 05:45:00;;;;;;;86.50;40.65;;;;;;;-4.30;66.51;103489.09;1673964;85;26182;-76
2022/03/19 05:47:26;;;;;;;97.72;43.33;;;;;;;-4.25;66.40;103488.56;1675649;85;28074;-77
2022/03/19 05:49:53;;;;;;;98.20;45.38;;;;;;;-4.16;66.41;103486.69;1668923;84;26111;-76
2022/03/19 05:52:19;;;;;;;93.58;41.70;;;;;;;-4.09;66.32;103494.88;1672358;85;26408;-77
2022/03/19 05:54:46;;;;;;;94.40;43.13;;;;;;;-4.01;66.37;103496.94;1670943;85;25874;-77
2022/03/19 05:57:12;;;;;;;93.67;43.98;;;;;;;-3.92;66.23;103499.41;1668569;85;25903;-76
2022/03/19 05:59:38;;;;;;;92.97;43.95;;;;;;;-3.84;66.15;103501.90;1670685;85;27453;-76
2022/03/19 06:02:06;;;;;;;98.60;43.45;;;;;;;-3.74;66.09;103506.09;1675546;84;25884;-77
2022/03/19 06:04:35;;;;;;;96.90;44.13;;;;;;;-3.65;66.28;103503.33;1671629;85;25703;-78
2022/03/19 06:07:05;;;;;;;92.47;44.70;;;;;;;-3.56;66.39;103507.55;1657438;85;26472;-76
2022/03/19 06:09:31;;;;;;;94.07;44.35;;;;;;;-3.51;66.45;103502.66;1676034;85;26009;-76
2022/03/19 06:11:58;;;;;;;108.78;45.33;;;;;;;-3.43;66.95;103507.76;1676099;85;27442;-77
2022/03/19 06:14:24;;;;;;;101.90;46.95;;;;;;;-3.34;66.98;103515.47;1689288;84;26485;-79
2022/03/19 06:16:52;;;;;;;100.78;47.08;;;;;;;-3.26;67.03;103514.44;1689687;84;26338;-75
2022/03/19 06:19:19;;;;;;;100.30;45.50;;;;;;;-3.14;66.93;103515.95;1691347;84;26540;-78
2022/03/19 06:21:46;;;;;;;95.25;44.60;;;;;;;-3.03;67.18;103519.68;1674760;84;25755;-76
2022/03/19 06:24:12;;;;;;;95.80;43.75;;;;;;;-2.93;67.43;103526.50;1680087;84;27615;-76
2022/03/19 06:26:38;;;;;;;97.35;45.00;;;;;;;-2.86;67.42;103527.65;1681451;84;25729;-76
2022/03/19 06:29:05;;;;;;;109.72;51.83;;;;;;;-2.77;67.56;103538.41;1686602;84;25804;-76
2022/03/19 06:31:32;;;;;;;119.82;52.05;;;;;;;-2.68;67.50;103529.05;1692251;84;25805;-76
2022/03/19 06:34:00;;;;;;;111.57;54.38;;;;;;;-2.57;67.74;103533.20;1692228;84;25597;-76
2022/03/19 06:39:12;;;;;;;113.52;53.65;;;;;;;-2.33;67.47;103539.66;1687325;84;25355;-76
2022/03/19 06:41:38;;;;;;;120.40;54.67;;;;;;;-2.19;67.50;103540.69;1689496;84;25812;-76
2022/03/19 06:44:05;;;;;;;117.20;55.85;;;;;;;-1.97;67.27;103539.32;1670394;84;26553;-76
2022/03/19 06:46:32;;;;;;;122.65;57.33;;;;;;;-1.79;67.55;103548.94;1685375;84;25850;-76
2022/03/19 06:48:59;;;;;;;119.15;57.65;;;;;;;-1.79;67.55;103548.94;1687360;84;28256;-76
2022/03/19 06:51:25;;;;;;;132.50;58.50;;;;;;;-1.65;67.07;103546.00;1688365;84;26540;-77
2022/03/19 06:53:51;;;;;;;122.70;57.75;;;;;;;-1.52;67.12;103555.75;1688696;84;25782;-76
2022/03/19 06:56:18;;;;;;;122.92;56.13;;;;;;;-1.39;66.77;103555.39;1690726;84;26486;-76
2022/03/19 06:58:45;;;;;;;122.62;57.03;;;;;;;-1.24;66.85;103552.85;1688268;84;25873;-77
2022/03/19 07:01:15;;;;;;;111.85;52.50;;;;;;;-1.10;66.30;103558.61;1690061;84;27537;-76
2022/03/19 07:03:39;;;;;;;118.60;55.80;;;;;;;-0.80;65.59;103556.03;1691409;84;25924;-77
2022/03/19 07:06:05;;;;;;;136.72;58.83;;;;;;;-0.64;65.13;103561.70;1689940;84;25873;-77
2022/03/19 07:08:32;;;;;;;125.42;56.95;;;;;;;-0.64;65.13;103561.70;1686384;84;26516;-76
2022/03/19 07:10:59;;;;;;;123.90;58.73;;;;;;;-0.48;65.21;103562.14;1690270;84;26007;-77
2022/03/19 07:13:26;;;;;;;117.87;55.58;;;;;;;-0.34;64.38;103560.00;1668927;84;28200;-77
2022/03/19 07:15:52;;;;;;;100.18;48.70;;;;;;;-0.21;63.88;103555.61;1648812;86;25881;-76
2022/03/19 07:18:18;;;;;;;102.35;50.73;;;;;;;-0.07;63.33;103562.67;1645521;86;25882;-77
2022/03/19 07:20:45;;;;;;;100.78;48.63;;;;;;;0.07;62.93;103560.91;1639972;86;25852;-76
2022/03/19 07:23:11;;;;;;;100.60;48.35;;;;;;;0.20;62.65;103562.25;1648358;85;26001;-76
2022/03/19 07:25:39;;;;;;;95.22;49.08;;;;;;;0.34;62.31;103563.98;1655533;85;27461;-76
2022/03/19 07:28:12;;;;;;;89.67;44.05;;;;;;;0.47;62.05;103565.80;1658694;85;25914;-76
2022/03/19 07:30:39;;;;;;;94.32;44.58;;;;;;;0.60;62.13;103565.32;1650474;84;26379;-76
2022/03/19 07:33:05;;;;;;;100.38;46.77;;;;;;;0.79;61.57;103566.91;1646843;86;25933;-77
2022/03/19 07:35:32;;;;;;;95.42;46.28;;;;;;;0.96;61.37;103571.61;1647461;86;25848;-76
2022/03/19 07:37:59;;;;;;;98.72;47.38;;;;;;;1.11;61.29;103574.55;1647350;86;28231;-76
2022/03/19 07:43:13;;;;;;;87.67;44.67;;;;;;;1.46;60.71;103574.63;1648350;85;26389;-76
2022/03/19 07:45:41;;;;;;;87.60;45.05;;;;;;;1.65;59.66;103570.86;1644766;85;26597;-75
2022/03/19 07:48:09;;;;;;;80.05;41.50;;;;;;;1.79;59.79;103573.38;1642781;85;25875;-77
2022/03/19 07:50:37;;;;;;;83.35;43.08;;;;;;;1.96;59.07;103572.28;1642634;85;27469;-76
2022/03/19 07:53:06;;;;;;;77.37;39.75;;;;;;;2.13;58.61;103572.94;1644816;86;26049;-76
2022/03/19 07:55:33;;;;;;;70.70;36.80;;;;;;;2.29;58.59;103574.05;1657945;84;25457;-76
2022/03/19 07:58:00;;;;;;;66.82;34.10;;;;;;;2.44;57.29;103571.27;1664631;85;25775;-76
2022/03/19 08:00:27;;;;;;;71.12;36.17;;;;;;;2.61;56.31;103572.28;1674664;85;25927;-76
2022/03/19 08:02:53;;;;;;;68.75;36.90;;;;;;;2.78;55.04;103574.25;1674380;85;27482;-77
2022/03/19 08:05:19;;;;;;;58.68;33.55;;;;;;;2.93;55.39;103574.92;1674482;85;26577;-77
2022/03/19 08:07:46;;;;;;;61.92;34.30;;;;;;;3.06;54.28;103582.26;1634263;86;25777;-77
2022/03/19 08:10:13;;;;;;;61.95;31.50;;;;;;;3.18;53.84;103570.28;1629386;86;25911;-76
2022/03/19 08:12:42;;;;;;;68.78;31.82;;;;;;;3.28;53.35;103575.56;1643220;86;25835;-76
2022/03/19 08:15:10;;;;;;;58.68;31.62;;;;;;;3.40;52.84;103575.02;1662363;85;27459;-76
2022/03/19 08:17:37;;;;;;;47.75;26.50;;;;;;;3.53;52.65;103576.19;1624993;87;25641;-79
2022/03/19 08:20:08;;;;;;;48.23;24.80;;;;;;;3.71;52.26;103576.70;1661042;85;26620;-79
2022/03/19 08:22:35;;;;;;;45.17;24.75;;;;;;;3.90;51.56;103578.02;1654389;85;26649;-79
2022/03/19 08:25:03;;;;;;;36.53;20.90;;;;;;;4.10;51.57;103586.38;1641263;86;25370;-79
2022/03/19 08:27:29;;;;;;;40.70;22.67;;;;;;;4.25;49.29;103583.86;1645245;86;28144;-79
2022/03/19 08:29:56;;;;;;;35.60;19.87;;;;;;;4.37;49.18;103586.38;1646397;85;25910;-79
2022/03/19 08:32:22;;;;;;;35.92;20.80;;;;;;;4.49;48.52;103577.84;1642880;86;25864;-79
2022/03/19 08:34:50;;;;;;;31.05;18.40;;;;;;;4.63;48.65;103585.51;1644996;84;25788;-79
2022/03/19 08:37:16;;;;;;;34.88;18.42;;;;;;;4.80;47.69;103586.45;1646910;86;25811;-79
2022/03/19 08:42:27;;;;;;;29.80;16.62;;;;;;;5.07;46.78;103577.10;1640964;87;25792;-79
2022/03/19 08:44:56;;;;;;;30.80;16.65;;;;;;;5.14;44.68;103578.02;1644483;86;36305;-79
2022/03/19 08:47:22;;;;;;;32.45;15.75;;;;;;;5.22;45.02;103572.30;1616434;88;25773;-79
2022/03/19 08:49:48;;;;;;;28.95;15.85;;;;;;;5.35;45.00;103572.91;1639951;87;25926;-78
2022/03/19 08:52:15;;;;;;;28.30;13.98;;;;;;;5.47;45.21;103568.76;1619064;87;27517;-79
2022/03/19 08:54:41;;;;;;;29.72;15.65;;;;;;;5.57;44.57;103573.96;1646385;85;25586;-78
2022/03/19 08:57:07;;;;;;;25.20;16.10;;;;;;;5.67;45.22;103567.20;1633522;85;25342;-79
2022/03/19 08:59:34;;;;;;;36.00;19.30;;;;;;;5.77;44.92;103574.22;1618852;87;26016;-78
2022/03/19 09:02:00;;;;;;;26.87;15.63;;;;;;;5.86;43.62;103581.74;1618199;88;26101;-76
2022/03/19 09:04:26;;;;;;;31.40;17.65;;;;;;;5.93;42.38;103577.78;1633806;87;27467;-77
2022/03/19 09:06:52;;;;;;;28.23;16.02;;;;;;;5.99;42.74;103581.42;1647116;86;25808;-77
2022/03/19 09:09:19;;;;;;;29.57;16.62;;;;;;;6.05;42.88;103583.28;1647313;86;26542;-77
2022/03/19 09:11:48;;;;;;;30.08;15.50;;;;;;;6.13;43.24;103585.53;1618982;86;26253;-77
2022/03/19 09:14:17;;;;;;;27.32;14.78;;;;;;;6.23;43.15;103583.59;1645024;86;25837;-76
2022/03/19 09:16:43;;;;;;;32.15;17.27;;;;;;;6.34;42.31;103580.33;1646904;86;27531;-75
2022/03/19 09:19:09;;;;;;;36.20;18.35;;;;;;;6.42;42.63;103583.41;1652354;85;26658;-76
2022/03/19 09:21:36;;;;;;;39.27;21.12;;;;;;;6.50;42.87;103580.32;1639890;85;25748;-76
2022/03/19 09:24:04;;;;;;;32.50;18.52;;;;;;;6.59;41.65;103582.43;1646225;85;26468;-76
2022/03/19 09:26:30;;;;;;;26.12;16.23;;;;;;;6.65;42.09;103584.77;1653115;85;25755;-76
2022/03/19 09:28:57;;;;;;;23.25;15.30;;;;;;;6.69;41.66;103585.80;1654860;85;28755;-76
2022/03/19 09:31:24;;;;;;;29.50;16.48;;;;;;;6.74;41.19;103574.42;1649560;85;25775;-76
2022/03/19 09:33:51;;;;;;;27.77;15.95;;;;;;;6.82;41.15;103584.64;1655803;85;25552;-77
2022/03/19 09:36:17;;;;;;;36.83;19.62;;;;;;;6.93;41.72;103576.84;1660604;85;25854;-76
2022/03/19 09:38:43;;;;;;;31.82;16.60;;;;;;;6.98;41.34;103583.64;1643710;85;25760;-77
2022/03/19 09:41:10;;;;;;;30.40;16.97;;;;;;;7.00;40.22;103578.21;1648365;85;28453;-77
2022/03/19 09:43:36;;;;;;;41.53;23.40;;;;;;;7.03;40.59;103578.87;1670686;85;26104;-76
2022/03/19 09:46:04;;;;;;;25.43;14.18;;;;;;;7.10;39.46;103578.53;1660645;85;25772;-76
2022/03/19 09:48:31;;;;;;;23.22;13.22;;;;;;;7.18;39.42;103573.13;1645567;85;25827;-75
2022/03/19 09:50:58;;;;;;;19.62;12.53;;;;;;;7.21;39.31;103572.05;1650435;85;25771;-76
2022/03/19 09:53:28;;;;;;;21.05;11.93;;;;;;;7.26;39.24;103573.98;1668604;85;28380;-76
2022/03/19 09:55:57;;;;;;;20.32;12.00;;;;;;;7.28;39.13;103575.61;1637345;86;25870;-76
2022/03/19 09:58:24;;;;;;;21.87;12.33;;;;;;;7.35;38.82;103576.09;1648025;86;26441;-76
2022/03/19 10:00:51;;;;;;;22.45;12.07;;;;;;;7.40;38.23;103580.68;1648419;85;26672;-76
2022/03/19 10:03:22;;;;;;;18.40;11.60;;;;;;;7.46;38.01;103581.13;1647830;86;26093;-76
2022/03/19 10:08:37;;;;;;;19.48;12.10;;;;;;;7.55;36.69;103570.38;1642262;86;25965;-77
2022/03/19 10:11:11;;;;;;;20.97;11.12;;;;;;;7.59;37.00;103571.92;1648815;86;25906;-76
2022/03/19 10:13:45;;;;;;;19.40;11.73;;;;;;;7.64;37.77;103577.81;1638148;86;25799;-76
2022/03/19 10:16:28;;;;;;;20.08;12.13;;;;;;;7.68;37.47;103574.86;1641752;87;25753;-76
2022/03/19 10:19:02;;;;;;;18.87;11.78;;;;;;;7.74;36.96;103570.47;1641749;87;28135;-77
2022/03/19 10:21:32;;;;;;;19.92;11.48;;;;;;;7.79;37.25;103572.85;1659632;85;26521;-76
2022/03/19 10:23:59;;;;;;;22.40;12.53;;;;;;;7.86;37.29;103569.32;1662906;85;25762;-76
2022/03/19 10:26:33;;;;;;;18.82;12.47;;;;;;;7.91;36.25;103570.77;1628973;87;26462;-76
2022/03/19 10:29:02;;;;;;;18.80;11.45;;;;;;;7.93;36.94;103576.86;1620224;87;25821;-75
2022/03/19 10:31:32;;;;;;;21.00;11.45;;;;;;;7.98;36.05;103570.73;1621802;87;28393;-76
2022/03/19 10:33:59;;;;;;;24.80;11.35;;;;;;;8.01;36.19;103575.02;1626547;87;25911;-75
2022/03/19 10:36:35;;;;;;;17.30;10.53;;;;;;;8.03;36.68;103571.78;1619291;87;25818;-76
2022/03/19 10:39:20;;;;;;;18.62;12.50;;;;;;;8.06;36.38;103565.75;1621929;87;26474;-76
2022/03/19 10:41:48;;;;;;;19.48;13.48;;;;;;;8.10;36.42;103560.62;1634785;85;25957;-76
2022/03/19 10:44:21;;;;;;;26.20;14.58;;;;;;;8.13;36.45;103556.41;1621552;87;27469;-76
2022/03/19 10:46:59;;;;;;;21.33;12.90;;;;;;;8.19;36.46;103561.34;1610306;87;26540;-77
2022/03/19 10:49:29;;;;;;;28.47;14.43;;;;;;;8.23;36.41;103560.69;1614420;87;25822;-77
2022/03/19 10:51:58;;;;;;;23.27;13.93;;;;;;;8.27;36.28;103556.89;1614168;88;25860;-77
2022/03/19 10:54:25;;;;;;;20.62;12.93;;;;;;;8.31;35.07;103556.59;1609698;87;25773;-77
2022/03/19 10:56:53;;;;;;;23.25;13.68;;;;;;;8.32;35.71;103552.08;1598272;88;27580;-77
2022/03/19 10:59:19;;;;;;;22.93;13.28;;;;;;;8.36;35.81;103550.45;1633504;87;25982;-77
2022/03/19 11:01:49;;;;;;;23.38;13.95;;;;;;;8.40;34.71;103549.79;1641205;87;26570;-76
2022/03/19 11:04:15;;;;;;;19.30;11.88;;;;;;;8.44;35.01;103544.15;1628361;87;25803;-76
2022/03/19 11:06:46;;;;;;;38.90;21.02;;;;;;;8.45;35.15;103541.84;1634852;86;25904;-76
2022/03/19 11:09:15;;;;;;;;;;;;;;;8.48;35.57;103546.13;1641660;87;27550;-77
2022/03/19 11:11:58;;;;;;;30.12;17.05;;;;;;;8.53;34.92;103544.02;1611095;87;25867;-75
2022/03/19 11:14:30;;;;;;;21.65;12.90;;;;;;;8.53;34.98;103547.52;1609913;87;25901;-76
2022/03/19 11:19:48;;;;;;;28.80;18.07;;;;;;;8.52;34.00;103539.14;1647203;86;25901;-77
2022/03/19 11:22:14;;;;;;;23.10;14.78;;;;;;;8.57;34.91;103537.98;1676466;85;27638;-76
2022/03/19 11:27:48;;;;;;;21.52;14.43;;;;;;;8.73;34.71;103526.62;1600248;89;26112;-77
2022/03/19 11:30:28;;;;;;;25.92;15.08;;;;;;;8.78;34.93;103531.19;1629013;86;25940;-76
2022/03/19 11:36:09;;;;;;;24.37;14.23;;;;;;;8.96;34.43;103520.59;1578556;85;26994;-76
2022/03/19 11:38:41;;;;;;;;;;;;;;;8.97;33.36;103515.13;1576419;90;25781;-77
2022/03/19 11:41:25;;;;;;;23.87;13.90;;;;;;;8.98;33.12;103510.65;1581229;88;25865;-76